Time;durP1;ratioP1;P1;durP2;ratioP2;P2;SDS_P1;SDS_P2;PMS_P1;PMS_P2;Temp;Humidity;BMP_temperature;BMP_pressure;BME280_temperature;BME280_humidity;BME280_pressure;Samples;Min_cycle;Max_cycle;Signal;HPM_P1;HPM_P2
2021/08/22 00:02:23;;;;;;;13.82;8.68;;;18.80;99.90;;;;;;5049713;28;20025;-74
2021/08/22 00:04:48;;;;;;;14.80;8.73;;;18.80;99.90;;;;;;5051633;28;20036;-73
2021/08/22 00:07:14;;;;;;;15.77;9.10;;;18.80;99.90;;;;;;5050827;28;20013;-73
2021/08/22 00:09:40;;;;;;;15.15;11.00;;;18.80;99.90;;;;;;5050483;28;20053;-73
2021/08/22 00:12:06;;;;;;;15.32;9.05;;;18.80;99.90;;;;;;5051352;28;20481;-73
2021/08/22 00:14:31;;;;;;;16.35;10.57;;;18.80;99.90;;;;;;5051472;28;20373;-73
2021/08/22 00:16:57;;;;;;;14.38;9.90;;;18.80;99.90;;;;;;5047591;28;20033;-73
2021/08/22 00:19:22;;;;;;;15.55;10.40;;;18.80;99.90;;;;;;5051580;28;20110;-73
2021/08/22 00:21:48;;;;;;;18.05;10.25;;;18.80;99.90;;;;;;5050946;28;20028;-74
2021/08/22 00:24:14;;;;;;;18.23;10.60;;;18.80;99.90;;;;;;5052249;28;20462;-74
2021/08/22 00:26:39;;;;;;;14.13;9.85;;;18.80;99.90;;;;;;5066924;28;20021;-73
2021/08/22 00:29:05;;;;;;;15.98;10.18;;;18.70;99.90;;;;;;5050534;28;20028;-73
2021/08/22 00:31:31;;;;;;;15.55;10.40;;;18.70;99.90;;;;;;5066441;28;20076;-74
2021/08/22 00:33:56;;;;;;;16.02;10.70;;;18.70;99.90;;;;;;5050657;28;20111;-76
2021/08/22 00:36:22;;;;;;;18.65;11.38;;;18.70;99.90;;;;;;5066213;28;20128;-74
2021/08/22 00:38:48;;;;;;;14.07;10.90;;;18.70;99.90;;;;;;5050849;28;20025;-75
2021/08/22 00:41:14;;;;;;;18.23;9.63;;;18.70;99.90;;;;;;5066173;28;20047;-73
2021/08/22 00:43:41;;;;;;;13.13;9.90;;;18.70;99.90;;;;;;5051376;28;20048;-73
2021/08/22 00:46:07;;;;;;;17.25;10.05;;;18.70;99.90;;;;;;5049134;28;20104;-74
2021/08/22 00:48:32;;;;;;;14.52;9.00;;;18.70;99.90;;;;;;5050136;28;20128;-74
2021/08/22 00:50:58;;;;;;;12.90;9.07;;;18.70;99.90;;;;;;5067066;28;20393;-73
2021/08/22 00:53:24;;;;;;;17.73;9.88;;;18.70;99.90;;;;;;5051014;28;20025;-73
2021/08/22 00:55:52;;;;;;;13.52;8.75;;;18.70;99.90;;;;;;5051022;28;20025;-73
2021/08/22 00:58:18;;;;;;;13.38;8.98;;;18.70;99.90;;;;;;5049637;28;20060;-73
2021/08/22 01:00:43;;;;;;;14.75;8.95;;;18.70;99.90;;;;;;5048378;28;20063;-73
2021/08/22 01:03:51;;;;;;;11.82;8.15;;;18.70;99.90;;;;;;5050125;28;20033;-73
2021/08/22 01:06:32;;;;;;;15.15;8.85;;;18.70;99.90;;;;;;5027359;28;20120;-73
2021/08/22 01:09:04;;;;;;;13.30;8.45;;;18.60;99.90;;;;;;5049660;28;20052;-74
2021/08/22 01:11:34;;;;;;;14.38;8.55;;;18.60;99.90;;;;;;5049319;28;20028;-73
2021/08/22 01:14:12;;;;;;;13.73;9.52;;;18.60;99.90;;;;;;5051215;28;20088;-74
2021/08/22 01:16:41;;;;;;;12.30;7.97;;;18.60;99.90;;;;;;5050730;28;20033;-74
2021/08/22 01:19:41;;;;;;;10.90;8.32;;;18.60;99.90;;;;;;5051150;28;20052;-74
2021/08/22 01:22:08;;;;;;;12.73;8.52;;;18.60;99.90;;;;;;5042692;28;20040;-74
2021/08/22 01:24:37;;;;;;;11.35;7.85;;;18.50;99.90;;;;;;5054858;28;20033;-75
2021/08/22 01:27:03;;;;;;;11.13;7.97;;;18.50;99.90;;;;;;5052935;28;20049;-74
2021/08/22 01:29:35;;;;;;;14.25;9.63;;;18.50;99.90;;;;;;5070258;28;20045;-74
2021/08/22 01:32:02;;;;;;;13.98;8.93;;;18.50;99.90;;;;;;5053569;28;20078;-74
2021/08/22 01:34:29;;;;;;;15.73;9.10;;;18.50;99.90;;;;;;5068656;28;20040;-74
2021/08/22 01:36:57;;;;;;;15.20;9.67;;;18.60;99.90;;;;;;5054259;28;20086;-73
2021/08/22 01:39:23;;;;;;;20.20;9.80;;;18.50;99.90;;;;;;5053590;28;20374;-74
2021/08/22 01:41:49;;;;;;;15.32;10.20;;;18.60;99.90;;;;;;5053227;28;20028;-74
2021/08/22 01:44:19;;;;;;;20.67;11.70;;;18.60;99.90;;;;;;5054363;28;20135;-74
2021/08/22 01:46:46;;;;;;;21.17;11.10;;;18.60;99.90;;;;;;5069322;28;20152;-74
2021/08/22 01:49:13;;;;;;;15.43;10.23;;;18.60;99.90;;;;;;5053971;28;20037;-74
2021/08/22 01:51:40;;;;;;;18.77;11.90;;;18.60;99.90;;;;;;5069029;28;20025;-74
2021/08/22 01:54:09;;;;;;;20.23;11.65;;;18.70;99.90;;;;;;5052237;28;20033;-74
2021/08/22 01:56:42;;;;;;;21.55;12.00;;;18.60;99.90;;;;;;5052352;28;20021;-75
2021/08/22 01:59:08;;;;;;;21.38;11.93;;;18.60;99.90;;;;;;5053684;28;20032;-74
2021/08/22 02:01:35;;;;;;;19.43;11.00;;;18.60;99.90;;;;;;5053537;28;20052;-74
2021/08/22 02:04:16;;;;;;;24.00;13.65;;;18.60;99.90;;;;;;5051127;28;20053;-74
2021/08/22 02:06:54;;;;;;;18.92;11.48;;;18.60;99.90;;;;;;5052722;28;20021;-74
2021/08/22 02:09:33;;;;;;;19.85;11.90;;;18.60;99.90;;;;;;5053878;28;20492;-75
2021/08/22 02:12:04;;;;;;;17.52;11.40;;;18.60;99.90;;;;;;5052720;28;20040;-74
2021/08/22 02:14:32;;;;;;;16.25;11.13;;;18.60;99.90;;;;;;5055375;28;20029;-74
2021/08/22 02:16:58;;;;;;;23.90;11.63;;;18.60;99.90;;;;;;5051391;28;20104;-74
2021/08/22 02:19:25;;;;;;;19.50;10.93;;;18.50;99.90;;;;;;5053414;28;20087;-74
2021/08/22 02:21:52;;;;;;;15.40;10.30;;;18.50;99.90;;;;;;5053150;28;20075;-75
2021/08/22 02:24:18;;;;;;;15.37;10.03;;;18.50;99.90;;;;;;5068566;28;20759;-75
2021/08/22 02:26:44;;;;;;;17.85;10.32;;;18.50;99.90;;;;;;5049133;28;20028;-75
2021/08/22 02:29:10;;;;;;;17.35;10.27;;;18.50;99.90;;;;;;5051170;28;20021;-75
2021/08/22 02:31:35;;;;;;;14.77;9.40;;;18.50;99.90;;;;;;5068085;28;20382;-75
2021/08/22 02:34:01;;;;;;;18.13;9.57;;;18.50;99.90;;;;;;5052599;28;20052;-75
2021/08/22 02:36:27;;;;;;;22.70;9.40;;;18.50;99.90;;;;;;5052831;28;20436;-74
2021/08/22 02:38:54;;;;;;;15.57;8.40;;;18.40;99.90;;;;;;5052680;28;20029;-75
2021/08/22 02:41:19;;;;;;;16.75;9.77;;;18.40;99.90;;;;;;5052732;28;20096;-75
2021/08/22 02:43:45;;;;;;;16.60;9.10;;;18.40;99.90;;;;;;5052933;28;20429;-74
2021/08/22 02:46:13;;;;;;;10.88;7.82;;;18.30;99.90;;;;;;5052844;28;20060;-75
2021/08/22 02:48:39;;;;;;;16.15;9.18;;;18.40;99.90;;;;;;5051915;28;20381;-76
2021/08/22 02:51:05;;;;;;;13.70;7.25;;;18.40;99.90;;;;;;5051241;28;20033;-75
2021/08/22 02:53:31;;;;;;;13.07;8.07;;;18.40;99.90;;;;;;5052586;28;20021;-75
2021/08/22 02:55:57;;;;;;;11.15;7.75;;;18.40;99.90;;;;;;5052594;28;20118;-75
2021/08/22 02:58:23;;;;;;;11.63;7.32;;;18.30;99.90;;;;;;5051453;28;20129;-76
2021/08/22 03:00:49;;;;;;;18.00;7.85;;;18.30;99.90;;;;;;5050264;28;21990;-75
2021/08/22 03:03:15;;;;;;;10.85;6.90;;;18.30;99.90;;;;;;5051523;28;20060;-77
2021/08/22 03:05:41;;;;;;;13.35;7.30;;;18.30;99.90;;;;;;5050709;28;20112;-74
2021/08/22 03:08:07;;;;;;;11.32;7.07;;;18.30;99.90;;;;;;5052925;28;20013;-75
2021/08/22 03:10:32;;;;;;;18.05;7.78;;;18.30;99.90;;;;;;5053070;28;20041;-75
2021/08/22 03:12:58;;;;;;;16.33;9.00;;;18.30;99.90;;;;;;5052909;28;20036;-75
2021/08/22 03:15:24;;;;;;;10.50;7.93;;;18.30;99.90;;;;;;5051942;28;20075;-75
2021/08/22 03:17:49;;;;;;;10.85;7.13;;;18.20;99.90;;;;;;5051941;28;20032;-75
2021/08/22 03:20:16;;;;;;;11.35;7.45;;;18.30;99.90;;;;;;5052304;28;20087;-75
2021/08/22 03:22:45;;;;;;;15.73;8.02;;;18.20;99.90;;;;;;5051889;28;20393;-75
2021/08/22 03:25:13;;;;;;;16.30;8.25;;;18.30;99.90;;;;;;5052611;28;20063;-74
2021/08/22 03:27:39;;;;;;;14.15;7.95;;;18.30;99.90;;;;;;5052510;28;20037;-75
2021/08/22 03:30:05;;;;;;;15.80;8.40;;;18.30;99.90;;;;;;5052663;28;20079;-75
2021/08/22 03:32:31;;;;;;;16.10;7.47;;;18.30;99.90;;;;;;5050818;28;20025;-75
2021/08/22 03:34:57;;;;;;;20.27;8.48;;;18.30;99.90;;;;;;5051515;28;20036;-75
2021/08/22 03:37:23;;;;;;;15.00;8.60;;;18.30;99.90;;;;;;5049212;28;20032;-75
2021/08/22 03:39:49;;;;;;;16.65;8.00;;;18.30;99.90;;;;;;5051382;28;20021;-75
2021/08/22 03:42:14;;;;;;;14.90;9.10;;;18.30;99.90;;;;;;5052169;28;21727;-75
2021/08/22 03:44:40;;;;;;;13.35;8.10;;;18.30;99.90;;;;;;5051367;28;20017;-75
2021/08/22 03:47:06;;;;;;;12.60;8.00;;;18.30;99.90;;;;;;5071566;28;20086;-74
2021/08/22 03:49:33;;;;;;;12.30;8.30;;;18.30;99.90;;;;;;5055787;28;20021;-75
2021/08/22 03:51:59;;;;;;;11.98;7.60;;;18.20;99.90;;;;;;5070342;28;20040;-75
2021/08/22 03:54:24;;;;;;;13.55;7.85;;;18.20;99.90;;;;;;5055596;28;20417;-76
2021/08/22 03:56:50;;;;;;;12.18;7.82;;;18.20;99.90;;;;;;5054975;28;20039;-75
2021/08/22 03:59:15;;;;;;;11.90;8.55;;;18.20;99.90;;;;;;5071741;28;20104;-75
2021/08/22 04:01:42;;;;;;;8.35;6.68;;;18.20;99.90;;;;;;5053203;28;20056;-76
2021/08/22 04:04:07;;;;;;;14.02;7.95;;;18.20;99.90;;;;;;5053309;28;20025;-75
2021/08/22 04:06:34;;;;;;;13.00;7.75;;;18.20;99.90;;;;;;5054974;28;20135;-76
2021/08/22 04:09:01;;;;;;;13.93;7.35;;;18.20;99.90;;;;;;5055775;28;20485;-75
2021/08/22 04:11:30;;;;;;;11.82;8.05;;;18.20;99.90;;;;;;5076507;28;20017;-75
2021/08/22 04:13:56;;;;;;;17.05;7.90;;;18.20;99.90;;;;;;5062438;28;20033;-76
2021/08/22 04:16:22;;;;;;;13.50;8.13;;;18.10;99.90;;;;;;5079353;28;20044;-75
2021/08/22 04:18:47;;;;;;;15.40;9.23;;;18.10;99.90;;;;;;5063059;28;20500;-75
2021/08/22 04:21:13;;;;;;;14.68;8.90;;;18.00;99.90;;;;;;5077397;28;20037;-75
2021/08/22 04:23:39;;;;;;;18.98;9.10;;;18.00;99.90;;;;;;5060089;28;20067;-75
2021/08/22 04:26:06;;;;;;;19.10;9.55;;;18.00;99.90;;;;;;5059147;28;20036;-76
2021/08/22 04:28:32;;;;;;;17.75;9.57;;;18.00;99.90;;;;;;5061061;28;20036;-75
2021/08/22 04:30:58;;;;;;;19.95;9.85;;;18.00;99.90;;;;;;5061168;28;20036;-75
2021/08/22 04:33:23;;;;;;;19.40;10.70;;;18.00;99.90;;;;;;5056421;28;20401;-75
2021/08/22 04:35:49;;;;;;;18.23;9.70;;;18.00;99.90;;;;;;5055197;28;20029;-74
2021/08/22 04:38:15;;;;;;;19.27;10.07;;;17.90;99.90;;;;;;5049353;28;20075;-75
2021/08/22 04:40:40;;;;;;;21.25;11.10;;;17.90;99.90;;;;;;5054843;28;20100;-75
2021/08/22 04:43:06;;;;;;;21.55;11.00;;;17.90;99.90;;;;;;5053128;28;20052;-75
2021/08/22 04:45:32;;;;;;;24.20;10.55;;;17.90;99.90;;;;;;5053222;28;20027;-75
2021/08/22 04:47:58;;;;;;;22.95;11.52;;;17.90;99.90;;;;;;5065660;28;20021;-75
2021/08/22 04:50:24;;;;;;;21.92;12.18;;;17.90;99.90;;;;;;5059835;28;20032;-76
2021/08/22 04:52:50;;;;;;;24.83;12.25;;;17.90;99.90;;;;;;5060954;28;20038;-75
2021/08/22 04:55:15;;;;;;;23.60;11.77;;;17.90;99.90;;;;;;5061938;28;20473;-76
2021/08/22 04:57:41;;;;;;;25.67;12.90;;;17.90;99.90;;;;;;5055716;28;20068;-76
2021/08/22 05:00:08;;;;;;;29.00;13.07;;;17.90;99.90;;;;;;5060344;28;20034;-76
2021/08/22 05:02:33;;;;;;;24.65;12.32;;;17.90;99.90;;;;;;5057059;28;20049;-76
2021/08/22 05:04:59;;;;;;;29.92;13.60;;;17.90;99.90;;;;;;5055992;28;20021;-75
2021/08/22 05:07:25;;;;;;;22.73;11.95;;;17.90;99.90;;;;;;5061482;28;20505;-75
2021/08/22 05:12:34;;;;;;;24.65;12.07;;;17.90;99.90;;;;;;5056266;28;20135;-75
2021/08/22 05:15:00;;;;;;;35.40;16.20;;;17.90;99.90;;;;;;5061328;28;21307;-75
2021/08/22 05:17:25;;;;;;;32.55;14.48;;;17.90;99.90;;;;;;5071843;28;20481;-76
2021/08/22 05:19:51;;;;;;;33.35;15.73;;;17.90;99.90;;;;;;5054504;28;20032;-75
2021/08/22 05:22:17;;;;;;;29.15;14.70;;;17.90;99.90;;;;;;5052932;28;20107;-78
2021/08/22 05:24:42;;;;;;;33.00;14.98;;;17.90;99.90;;;;;;5069322;28;20023;-75
2021/08/22 05:27:08;;;;;;;32.22;15.65;;;17.90;99.90;;;;;;5055499;28;20033;-76
2021/08/22 05:29:33;;;;;;;31.23;14.98;;;17.90;99.90;;;;;;5055523;28;20393;-75
2021/08/22 05:32:01;;;;;;;36.50;16.35;;;17.90;99.90;;;;;;5050931;28;20041;-75
2021/08/22 05:34:26;;;;;;;34.15;14.65;;;17.90;99.90;;;;;;5053459;28;20055;-76
2021/08/22 05:36:52;;;;;;;31.48;16.10;;;17.90;99.90;;;;;;5052773;28;20036;-75
2021/08/22 05:39:19;;;;;;;34.17;15.63;;;17.90;99.90;;;;;;5052134;28;20041;-75
2021/08/22 05:41:45;;;;;;;43.97;17.13;;;17.90;99.90;;;;;;5051708;28;20392;-75
2021/08/22 05:44:10;;;;;;;37.15;17.83;;;18.00;99.90;;;;;;5050422;28;20018;-75
2021/08/22 05:46:36;;;;;;;41.75;17.30;;;18.00;99.90;;;;;;5054325;28;20067;-77
2021/08/22 05:49:03;;;;;;;41.60;18.63;;;18.00;99.90;;;;;;5049579;28;20104;-75
2021/08/22 05:51:28;;;;;;;35.80;17.15;;;18.00;99.90;;;;;;5052169;28;20045;-76
2021/08/22 05:53:54;;;;;;;41.35;18.55;;;18.00;99.90;;;;;;5069074;28;20385;-75
2021/08/22 05:56:19;;;;;;;34.03;18.02;;;18.10;99.90;;;;;;5054024;28;20029;-75
2021/08/22 05:58:45;;;;;;;37.00;18.10;;;18.20;99.90;;;;;;5052657;28;20025;-77
2021/08/22 06:01:11;;;;;;;39.30;17.73;;;18.20;99.90;;;;;;5052033;28;20420;-75
2021/08/22 06:03:36;;;;;;;39.83;17.75;;;18.20;99.90;;;;;;5053407;28;20024;-76
2021/08/22 06:06:06;;;;;;;40.85;18.65;;;18.30;99.90;;;;;;5053457;28;20020;-76
2021/08/22 06:08:33;;;;;;;37.17;19.65;;;18.30;99.90;;;;;;5048671;28;20039;-76
2021/08/22 06:10:59;;;;;;;42.92;20.55;;;18.30;99.90;;;;;;5052350;28;20033;-75
2021/08/22 06:13:24;;;;;;;42.15;19.42;;;18.40;99.90;;;;;;5052489;28;20027;-77
2021/08/22 06:15:50;;;;;;;53.10;19.95;;;18.50;99.90;;;;;;5048907;28;20500;-78
2021/08/22 06:18:17;;;;;;;40.08;19.65;;;18.40;99.90;;;;;;5066184;28;20033;-75
2021/08/22 06:20:44;;;;;;;35.88;18.50;;;18.40;99.90;;;;;;5050810;28;20028;-76
2021/08/22 06:23:10;;;;;;;35.75;19.25;;;18.50;99.90;;;;;;5049318;28;20053;-75
2021/08/22 06:25:36;;;;;;;42.83;19.48;;;18.40;99.90;;;;;;5053373;28;20013;-76
2021/08/22 06:28:01;;;;;;;42.20;20.45;;;18.40;99.90;;;;;;5052449;28;20489;-76
2021/08/22 06:30:27;;;;;;;44.70;21.08;;;18.50;99.90;;;;;;5053338;28;20025;-76
2021/08/22 06:32:53;;;;;;;36.10;18.13;;;18.50;99.90;;;;;;5052884;28;20078;-78
2021/08/22 06:35:19;;;;;;;39.80;17.98;;;18.50;99.90;;;;;;5049728;28;20017;-78
2021/08/22 06:37:45;;;;;;;37.30;19.25;;;18.60;99.90;;;;;;5052473;28;20020;-77
2021/08/22 06:40:11;;;;;;;43.33;19.45;;;18.70;99.90;;;;;;5053642;28;20031;-77
2021/08/22 06:42:37;;;;;;;41.47;17.92;;;18.70;99.90;;;;;;5052497;28;20047;-77
2021/08/22 06:45:03;;;;;;;34.22;18.00;;;18.70;99.90;;;;;;5052245;28;20096;-75
2021/08/22 06:47:29;;;;;;;35.08;17.88;;;18.70;99.90;;;;;;5050165;28;20079;-76
2021/08/22 06:49:55;;;;;;;35.13;17.63;;;18.70;99.90;;;;;;5065180;28;20013;-77
2021/08/22 06:52:21;;;;;;;29.00;17.38;;;18.70;99.90;;;;;;5034937;28;20056;-77
2021/08/22 06:54:46;;;;;;;29.20;16.27;;;18.70;99.90;;;;;;5053472;28;20389;-76
2021/08/22 06:57:12;;;;;;;29.05;17.05;;;18.70;99.90;;;;;;5053362;28;20495;-75
2021/08/22 06:59:39;;;;;;;34.58;16.80;;;18.80;99.90;;;;;;5050027;28;20417;-75
2021/08/22 07:02:05;;;;;;;34.25;16.98;;;18.80;99.90;;;;;;5050006;28;20028;-76
2021/08/22 07:04:31;;;;;;;32.45;15.88;;;18.80;99.90;;;;;;5047956;28;20033;-75
2021/08/22 07:06:57;;;;;;;35.35;16.65;;;18.80;99.90;;;;;;5051032;28;20036;-76
2021/08/22 07:09:22;;;;;;;26.60;15.35;;;18.80;99.90;;;;;;5048976;28;20045;-76
2021/08/22 07:11:48;;;;;;;29.77;15.63;;;18.80;99.90;;;;;;5050421;28;20033;-77
2021/08/22 07:14:14;;;;;;;30.38;14.88;;;18.80;99.90;;;;;;5049632;28;20028;-76
2021/08/22 07:16:40;;;;;;;33.53;14.10;;;18.80;99.90;;;;;;5049203;28;20031;-75
2021/08/22 07:19:06;;;;;;;27.88;14.25;;;18.80;99.90;;;;;;5049893;28;20425;-76
2021/08/22 07:21:33;;;;;;;25.52;13.65;;;18.80;99.90;;;;;;5051499;28;20013;-76
2021/08/22 07:23:58;;;;;;;23.63;13.18;;;18.90;99.90;;;;;;5051126;28;20155;-77
2021/08/22 07:26:24;;;;;;;24.23;12.57;;;18.90;99.90;;;;;;5050550;28;20029;-76
2021/08/22 07:28:49;;;;;;;18.27;11.68;;;19.00;99.90;;;;;;5049462;28;20079;-75
2021/08/22 07:31:34;;;;;;;23.90;11.52;;;19.00;99.90;;;;;;5050916;28;20025;-74
2021/08/22 07:33:59;;;;;;;21.58;10.52;;;19.00;99.90;;;;;;5050026;28;20087;-76
2021/08/22 07:36:25;;;;;;;27.40;11.00;;;19.10;99.90;;;;;;5049764;28;20111;-77
2021/08/22 07:38:51;;;;;;;21.95;11.00;;;19.10;99.90;;;;;;5049074;28;20072;-75
2021/08/22 07:41:16;;;;;;;26.13;11.55;;;19.20;99.90;;;;;;5051626;28;20158;-74
2021/08/22 07:43:42;;;;;;;18.77;11.43;;;19.20;99.90;;;;;;5049900;28;20134;-77
2021/08/22 07:46:08;;;;;;;21.33;11.60;;;19.20;99.90;;;;;;5051016;28;20106;-76
2021/08/22 07:48:34;;;;;;;20.48;11.75;;;19.20;99.90;;;;;;5051457;28;20108;-76
2021/08/22 07:50:59;;;;;;;19.55;11.13;;;19.20;99.90;;;;;;5051959;28;20045;-77
2021/08/22 07:53:25;;;;;;;22.92;11.45;;;19.10;99.90;;;;;;5050818;28;20029;-76
2021/08/22 07:55:51;;;;;;;25.45;11.82;;;19.20;99.90;;;;;;5046743;28;20036;-76
2021/08/22 07:58:16;;;;;;;18.92;11.25;;;19.10;99.90;;;;;;5049444;28;20029;-76
2021/08/22 08:00:42;;;;;;;18.80;10.85;;;19.20;99.90;;;;;;5046898;28;20416;-76
2021/08/22 08:03:08;;;;;;;20.77;11.88;;;19.30;99.90;;;;;;5051053;28;20477;-75
2021/08/22 08:05:33;;;;;;;18.08;10.88;;;19.40;99.90;;;;;;5051580;28;20025;-75
2021/08/22 08:07:59;;;;;;;22.08;11.60;;;19.40;99.90;;;;;;5052121;28;20428;-75
2021/08/22 08:10:26;;;;;;;25.08;12.30;;;19.50;99.90;;;;;;5066994;28;20105;-75
2021/08/22 08:12:52;;;;;;;22.02;12.45;;;19.60;99.90;;;;;;5068593;28;20048;-75
2021/08/22 08:15:19;;;;;;;21.50;11.53;;;19.60;99.90;;;;;;5050468;28;20106;-75
2021/08/22 08:17:45;;;;;;;22.90;12.50;;;19.60;99.90;;;;;;5050652;28;20024;-75
2021/08/22 08:20:12;;;;;;;20.23;11.13;;;19.60;99.90;;;;;;5050400;28;20029;-76
2021/08/22 08:22:37;;;;;;;27.27;14.87;;;19.50;99.90;;;;;;5049275;28;20033;-75
2021/08/22 08:25:04;;;;;;;23.67;14.55;;;19.50;99.90;;;;;;5048354;28;20075;-75
2021/08/22 08:27:29;;;;;;;24.52;15.10;;;19.50;99.90;;;;;;5050422;28;20037;-75
2021/08/22 08:29:55;;;;;;;24.23;14.82;;;19.60;99.90;;;;;;5049564;28;20515;-75
2021/08/22 08:32:20;;;;;;;25.23;14.38;;;19.60;99.90;;;;;;5052822;28;20497;-75
2021/08/22 08:34:48;;;;;;;30.50;14.50;;;19.60;99.90;;;;;;5054202;28;20053;-74
2021/08/22 08:37:14;;;;;;;23.35;13.73;;;19.70;99.90;;;;;;5054453;28;20120;-75
2021/08/22 08:39:39;;;;;;;22.40;13.23;;;19.80;99.90;;;;;;5056205;28;20116;-75
2021/08/22 08:42:17;;;;;;;24.40;13.32;;;19.90;99.90;;;;;;5053914;28;20108;-75
2021/08/22 08:44:43;;;;;;;22.98;13.15;;;20.00;99.90;;;;;;5050333;28;20100;-75
2021/08/22 08:47:14;;;;;;;18.80;13.15;;;20.00;99.90;;;;;;5055632;28;20100;-76
2021/08/22 08:49:50;;;;;;;19.13;12.13;;;20.10;99.90;;;;;;5056165;28;20041;-75
2021/08/22 08:52:45;;;;;;;19.52;12.55;;;20.20;99.90;;;;;;5056197;28;20056;-75
2021/08/22 08:55:16;;;;;;;26.52;13.45;;;20.20;99.90;;;;;;5049133;28;20041;-74
2021/08/22 08:57:42;;;;;;;16.25;12.27;;;20.20;99.90;;;;;;5058666;28;20060;-74
2021/08/22 09:00:13;;;;;;;17.58;12.00;;;20.20;99.90;;;;;;5056231;28;20033;-74
2021/08/22 09:02:39;;;;;;;19.80;13.45;;;20.20;99.90;;;;;;5053232;28;20054;-75
2021/08/22 09:05:31;;;;;;;18.83;12.45;;;20.30;99.90;;;;;;5056828;28;20116;-75
2021/08/22 09:08:34;;;;;;;19.58;12.35;;;20.30;99.90;;;;;;5056393;28;20060;-74
2021/08/22 09:11:19;;;;;;;14.73;11.00;;;20.30;99.90;;;;;;5057986;28;20374;-74
2021/08/22 09:14:30;;;;;;;14.85;10.65;;;20.30;99.90;;;;;;5062230;28;20032;-72
2021/08/22 09:17:26;;;;;;;16.65;11.93;;;20.30;99.90;;;;;;5072811;28;20040;-75
2021/08/22 09:20:30;;;;;;;18.30;11.57;;;20.40;99.90;;;;;;5071751;28;20037;-78
2021/08/22 09:23:47;;;;;;;19.80;11.70;;;20.40;99.90;;;;;;5068854;28;20075;-74
2021/08/22 09:26:30;;;;;;;;;;;20.60;99.90;;;;;;5074213;28;20033;-74
2021/08/22 09:29:52;;;;;;;16.73;11.73;;;20.80;99.90;;;;;;5087647;28;19908;-75
2021/08/22 09:32:44;;;;;;;14.70;9.60;;;20.70;99.90;;;;;;5061281;28;20080;-76
2021/08/22 09:35:12;;;;;;;16.73;10.27;;;20.60;99.90;;;;;;5091578;28;20009;-74
2021/08/22 09:38:23;;;;;;;12.80;9.88;;;20.60;99.90;;;;;;5076028;28;20067;-74
2021/08/22 09:41:01;;;;;;;19.52;11.55;;;20.60;99.90;;;;;;5071836;28;20031;-79
2021/08/22 09:43:38;;;;;;;16.55;10.98;;;20.80;99.90;;;;;;5069706;28;20029;-76
2021/08/22 09:46:23;;;;;;;;;;;21.00;99.90;;;;;;5089740;28;20119;-74
2021/08/22 09:49:18;;;;;;;15.70;9.15;;;21.50;99.90;;;;;;5085117;28;19945;-74
2021/08/22 09:52:21;;;;;;;13.98;10.38;;;21.70;99.90;;;;;;5067510;28;20036;-75
2021/08/22 09:54:50;;;;;;;14.95;8.80;;;21.70;99.90;;;;;;5057314;28;20025;-76
2021/08/22 09:57:53;;;;;;;20.35;10.23;;;21.50;99.90;;;;;;5056850;28;20033;-76
2021/08/22 10:00:53;;;;;;;12.30;9.23;;;21.40;99.90;;;;;;5070391;28;20080;-75
2021/08/22 10:03:36;;;;;;;13.15;8.85;;;21.40;99.90;;;;;;5067552;28;20037;-75
2021/08/22 10:06:39;;;;;;;12.68;7.57;;;21.50;99.90;;;;;;5053156;28;20032;-74
2021/08/22 10:09:20;;;;;;;12.50;8.35;;;21.50;99.90;;;;;;5053916;28;20037;-75
2021/08/22 10:11:49;;;;;;;10.20;8.13;;;21.40;99.90;;;;;;5065726;28;20028;-74
2021/08/22 10:14:15;;;;;;;12.70;8.57;;;21.30;99.90;;;;;;5053732;28;20085;-75
2021/08/22 10:16:41;;;;;;;14.93;9.25;;;21.30;99.90;;;;;;5054892;28;20053;-75
2021/08/22 10:19:08;;;;;;;13.98;9.00;;;21.20;99.90;;;;;;5051339;28;20114;-74
2021/08/22 10:21:34;;;;;;;13.17;8.97;;;21.10;99.90;;;;;;5052454;28;20029;-75
2021/08/22 10:24:24;;;;;;;18.50;9.23;;;20.90;99.90;;;;;;5052380;28;20107;-74
2021/08/22 10:26:57;;;;;;;12.65;9.90;;;20.70;99.90;;;;;;5067123;28;20030;-75
2021/08/22 10:29:47;;;;;;;13.57;9.45;;;20.50;99.90;;;;;;5051761;28;20025;-75
2021/08/22 10:32:14;;;;;;;16.45;9.85;;;20.40;99.90;;;;;;5046558;28;21305;-76
2021/08/22 10:34:41;;;;;;;17.55;9.73;;;20.50;99.90;;;;;;5051360;28;20043;-76
2021/08/22 10:37:27;;;;;;;15.20;10.00;;;20.40;99.90;;;;;;5063940;28;20059;-75
2021/08/22 10:39:53;;;;;;;20.57;11.13;;;20.40;99.90;;;;;;5054156;28;20020;-77
2021/08/22 10:42:20;;;;;;;18.05;11.68;;;20.30;99.90;;;;;;5049621;28;20292;-75
2021/08/22 10:44:47;;;;;;;16.52;10.48;;;20.30;99.90;;;;;;5050479;28;20025;-76
2021/08/22 10:47:19;;;;;;;15.60;10.93;;;20.40;99.90;;;;;;5052034;28;20040;-74
2021/08/22 10:49:54;;;;;;;14.93;9.73;;;20.30;99.90;;;;;;5052010;28;20024;-74
2021/08/22 10:52:25;;;;;;;17.80;10.77;;;20.40;99.90;;;;;;5050850;28;20033;-75
2021/08/22 10:55:12;;;;;;;18.45;10.65;;;20.30;99.90;;;;;;5051006;28;20037;-77
2021/08/22 10:57:49;;;;;;;14.55;10.02;;;20.40;99.90;;;;;;5051469;28;20064;-75
2021/08/22 11:00:27;;;;;;;15.20;9.25;;;20.30;99.90;;;;;;5066807;28;21226;-75
2021/08/22 11:02:53;;;;;;;10.13;8.27;;;20.30;99.90;;;;;;5050294;28;20029;-74
2021/08/22 11:05:21;;;;;;;17.30;9.82;;;20.20;99.90;;;;;;5047522;28;20093;-77
2021/08/22 11:07:51;;;;;;;16.17;9.55;;;20.20;99.90;;;;;;5066596;28;20080;-76
2021/08/22 11:10:29;;;;;;;18.85;11.35;;;20.10;99.90;;;;;;5048719;28;20128;-78
2021/08/22 11:12:56;;;;;;;13.57;7.97;;;19.80;99.90;;;;;;5052317;28;20049;-76
2021/08/22 11:15:39;;;;;;;13.77;7.57;;;19.40;99.90;;;;;;5063506;28;20033;-77
2021/08/22 11:18:04;;;;;;;9.25;6.80;;;19.00;99.90;;;;;;5068812;28;20044;-75
2021/08/22 11:20:32;;;;;;;8.50;5.95;;;18.70;99.90;;;;;;5049873;28;20035;-77
2021/08/22 11:23:03;;;;;;;5.43;4.57;;;18.60;99.90;;;;;;5048478;28;20021;-78
2021/08/22 11:25:28;;;;;;;7.43;4.35;;;18.40;99.90;;;;;;5050298;28;20072;-76
2021/08/22 11:28:14;;;;;;;6.35;3.10;;;18.20;99.90;;;;;;5050159;28;20057;-76
2021/08/22 11:30:41;;;;;;;3.08;2.20;;;18.10;99.90;;;;;;5051485;28;20669;-76
2021/08/22 11:33:08;;;;;;;3.53;2.33;;;18.00;99.90;;;;;;5049944;28;20108;-77
2021/08/22 11:35:38;;;;;;;4.60;2.35;;;17.80;99.90;;;;;;5047565;28;20473;-78
2021/08/22 11:38:05;;;;;;;4.22;2.13;;;17.70;99.90;;;;;;5047048;28;20392;-76
2021/08/22 11:40:33;;;;;;;3.53;1.98;;;17.70;99.90;;;;;;5041447;28;20112;-76
2021/08/22 11:43:04;;;;;;;2.45;2.25;;;17.60;99.90;;;;;;5049152;28;20017;-76
2021/08/22 11:45:39;;;;;;;8.18;2.17;;;17.50;99.90;;;;;;5050535;28;20029;-79
2021/08/22 11:48:06;;;;;;;5.18;1.88;;;17.50;99.90;;;;;;5044893;28;20040;-77
2021/08/22 11:50:35;;;;;;;5.95;2.03;;;17.50;99.90;;;;;;5052417;28;20028;-78
2021/08/22 11:53:06;;;;;;;5.53;3.58;;;17.40;99.90;;;;;;5049609;28;20469;-76
2021/08/22 11:55:35;;;;;;;1.40;1.30;;;17.30;99.90;;;;;;5050160;28;20017;-77
2021/08/22 11:58:20;;;;;;;6.13;1.73;;;17.30;99.90;;;;;;5050663;28;20036;-78
2021/08/22 12:00:51;;;;;;;2.67;2.17;;;17.20;99.90;;;;;;5052076;28;20033;-79
2021/08/22 12:03:18;;;;;;;3.45;1.90;;;17.20;99.90;;;;;;5050758;28;20039;-78
2021/08/22 12:06:00;;;;;;;;;;;17.20;99.90;;;;;;5050119;28;20032;-80
2021/08/22 12:08:36;;;;;;;4.15;2.38;;;17.20;99.90;;;;;;5051417;28;20391;-77
2021/08/22 12:11:22;;;;;;;3.90;2.08;;;17.10;99.90;;;;;;5049215;28;20017;-78
2021/08/22 12:13:48;;;;;;;3.87;2.53;;;17.10;99.90;;;;;;5064982;28;20017;-77
2021/08/22 12:16:26;;;;;;;2.28;2.00;;;17.10;99.90;;;;;;5062490;28;20187;-81
2021/08/22 12:18:53;;;;;;;2.42;2.15;;;17.10;99.90;;;;;;5053118;28;20025;-76
2021/08/22 12:21:21;;;;;;;1.98;1.70;;;17.20;99.90;;;;;;5051754;28;20052;-79
2021/08/22 12:23:56;;;;;;;5.47;2.15;;;17.20;99.90;;;;;;5061767;28;20025;-80
2021/08/22 12:26:30;;;;;;;3.90;2.40;;;17.30;99.90;;;;;;5049569;28;20029;-79
2021/08/22 12:29:07;;;;;;;3.10;2.08;;;17.30;99.90;;;;;;5050906;28;20040;-78
2021/08/22 12:31:43;;;;;;;4.47;2.95;;;17.40;99.90;;;;;;5052274;28;20497;-80
2021/08/22 12:34:11;;;;;;;2.83;2.30;;;17.50;99.90;;;;;;5049918;28;20021;-79
2021/08/22 12:36:40;;;;;;;3.72;2.67;;;17.50;99.90;;;;;;5052316;28;20021;-78
2021/08/22 12:39:15;;;;;;;6.10;3.03;;;17.60;99.90;;;;;;5051980;28;20041;-79
2021/08/22 12:41:51;;;;;;;2.90;2.60;;;17.60;99.90;;;;;;5050817;28;20385;-79
2021/08/22 12:44:17;;;;;;;5.00;3.28;;;17.70;99.90;;;;;;5047979;28;20045;-80
2021/08/22 12:46:55;;;;;;;7.10;3.75;;;17.80;99.90;;;;;;5064669;28;20048;-80
2021/08/22 12:49:21;;;;;;;6.47;3.47;;;17.80;99.90;;;;;;5065211;28;20118;-78
2021/08/22 12:51:58;;;;;;;6.82;3.90;;;17.90;99.90;;;;;;5050328;28;20029;-78